Share

Vesta, MN

Redwood Falls Municipal (KRWF) Elev 1024 ft | 44.55 °N, 95.08 °W | Change Station
Active Advisory: Fire Weather Warning

Current weather conditions updated 3 minutes ago

Clear
Clear
54 °F
Feels Like 54 °F
N
4
Wind Variable Wind from North
Sunrise 6:27 AM
Sunset 8:13 PM
Moon Waning Gibbous

Today is forecast to be Much Cooler than yesterday.

Pressure 29.90 in
Visibility 6.0 miles
Clouds Clear
Dew Point 52 °F
Humidity 93%
Rainfall 0.00 in
Snow Depth Not available.
UV 0 out of 16
Pollen 10.50 out of 12
Air Quality Not available.
Flu Activity Sporadic
SPECI KRWF 211003Z AUTO 01003KT 6SM BR CLR 12/11 A2990 RMK AO2 LTG DSNT SE T01220111

More Conditions Fewer Conditions

Pressure 29.90 in
Visibility 6.0 miles
Clouds Clear
Dew Point 52 °F
Humidity 93%
Rainfall 0.00 in
Snow Depth Not available.
UV 0 out of 16
Pollen 10.50 out of 12
Air Quality Not available.
Flu Activity Sporadic
SPECI KRWF 211003Z AUTO 01003KT 6SM BR CLR 12/11 A2990 RMK AO2 LTG DSNT SE T01220111

More Conditions Fewer Conditions

10-Day Weather Forecast

Almanac

Astronomy

Apr. 21, 2014 Rise Set
Actual Time 6:27 AM CDT 8:13 PM CDT
Civil Twilight 5:56 AM CDT 8:44 PM CDT
Nautical Twilight 5:19 AM CDT 9:22 PM CDT
Astronomical Twilight 4:38 AM CDT 10:03 PM CDT
Moon 1:48 AM CDT 11:52 AM CDT
Length of Visible Light 14h 48m
Length of Day
13h 46m
Tomorrow will be 2m 51s longer.
Waning Gibbous, 60% of the Moon is Illuminated
Today
Waning Gibbous
Apr 22
Last Quarter
Apr 29
New
May 6
First Quarter
May 14
Full

Today's Extremes

State Highs State Lows

Community

  • Snowy Robin
    Snowy Robin
  • Sun Pillar and Geese
    Sun Pillar and Geese
  • Showers on the Way
    Showers on the Way
  • Easter Morning Fog
    Easter Morning Fog
  • Easter Dance
    Easter Dance

WunderPhotos

Upload Photos

1,703,585 photos uploaded!

Nearby

Snow Depth

Station Depth Elevation
No new snow has been reported.

Coastal Water Temperatures

Place Temperature
No Stations Reporting

Earthquake Activity

City Distance Mag. Time & Date
No recent earthquake activity has been reported nearby.
Minimum magnitude displayed is 2.5.

Nearby Weather Stations

Station Location Temp. Dew Point Humidity Wind Precip. Elev Updated Type
Samuel Luth. School, Marshall, MN 52.2 °F 47 °F 83% WNW  at  4.0 mph 0.00 in / hr 1145 ft 5:06 AM CDT Rapid Fire
Ryan Farms, Springfield, MN 54.1 °F 52 °F 94% NNE  at  3.0 mph 0.00 in / hr 1076 ft 5:06 AM CDT Normal
Renville, Renville, MN 56.1 °F 54 °F 92% North  at  0.0 mph 0.00 in / hr 1063 ft 5:06 AM CDT Rapid Fire

Show More Stations Show Fewer Stations

What do you think?

We're not finished. Please let us know what you like, what you don't like, and what you are still missing.